Sankoushin — JD2465 — position and weather

sailwx.info

Track history (hours):
 
Tides and Currents Weather Stations Pressure Air Temp Water Temp Dewpoint Dewpoint Depression Visibility Wind Speed Wind Dir Waves Ship Positions

Sankoushin

Last reported at 2014-Oct-29 01:31 UTC. Time now 2014-Oct-31 12:19 UTC.
Position N 35°18' E 139°44'.

Length 71 m; draft 4.2 m.

Type: Cargo ship. MMSI: 431000269.

Date/timePositionNaut miles runAvg speedWind from/ knotsBaromVisibWave heightAir tempDewpointWater temp
2014-Oct-29 01:31N 35°18' E 139°44'8 7.8
2014-Oct-29 00:33N 35°25' E 139°48'6 1.9
2014-Oct-28 21:30N 35°22' E 139°53'0 0.0
2014-Oct-28 20:30N 35°22' E 139°53'0 0.0
2014-Oct-28 19:06N 35°22' E 139°53'0 0.0
2014-Oct-28 18:06N 35°22' E 139°53'0 0.0
2014-Oct-28 17:24N 35°22' E 139°53'0 0.0
2014-Oct-28 16:18N 35°22' E 139°53'0 0.0
2014-Oct-28 14:24N 35°22' E 139°53'0 0.0
2014-Oct-28 09:19N 35°22' E 139°53'7 8.9
2014-Oct-28 08:32N 35°28' E 139°50'5 0.2
2014-Oct-27 04:33N 35°31' E 139°55'1111.5
2014-Oct-27 03:33N 35°23' E 139°45'249 9.8
2014-Oct-26 02:10N 33°59' E 135°01'711.7
2014-Oct-26 01:32N 34°07' E 134°59'1410.1
2014-Oct-26 00:10N 34°20' E 134°60'610.6
2014-Oct-25 23:33N 34°27' E 135°01'9 9.3
2014-Oct-25 22:32N 34°36' E 135°03'135 3.6
2014-Oct-24 09:13N 34°06' E 132°23'812.4
2014-Oct-24 08:33N 34°15' E 132°22'1010.1
2014-Oct-24 07:33N 34°21' E 132°31'0 0.0
2014-Oct-24 05:29N 34°21' E 132°31'0 0.1
2014-Oct-24 04:32N 34°21' E 132°31'0 0.0
2014-Oct-24 01:11N 34°21' E 132°31'0 0.0
2014-Oct-23 23:32N 34°21' E 132°31'0 0.0
2014-Oct-23 22:29N 34°21' E 132°31'0 0.0
2014-Oct-23 21:32N 34°21' E 132°31'0 0.0
2014-Oct-23 20:32N 34°21' E 132°31'0 0.0
2014-Oct-23 19:32N 34°21' E 132°31'0 0.0
2014-Oct-23 18:32N 34°21' E 132°31'0 0.0
2014-Oct-23 17:32N 34°21' E 132°31'0 0.0
2014-Oct-23 16:32N 34°21' E 132°31'0 0.0
2014-Oct-23 15:26N 34°21' E 132°31'0 0.1
2014-Oct-23 14:32N 34°21' E 132°31'0 0.0
2014-Oct-23 13:32N 34°21' E 132°31'0 0.0
2014-Oct-23 12:32N 34°21' E 132°31'1 0.3
2014-Oct-23 08:33N 34°21' E 132°30'  
Track history (hours):
 
Tides and Currents Weather Stations Pressure Air Temp Water Temp Dewpoint Dewpoint Depression Visibility Wind Speed Wind Dir Waves Ship Positions

Sankoushin

Last reported at 2014-Oct-29 01:31 UTC. Time now 2014-Oct-31 12:19 UTC.
Position N 35°18' E 139°44'.

Length 71 m; draft 4.2 m.

Type: Cargo ship. MMSI: 431000269.

Date/timePositionNaut miles runAvg speedWind from/ knotsBaromVisibWave heightAir tempDewpointWater temp
2014-Oct-29 01:31N 35°18' E 139°44'8 7.8
2014-Oct-29 00:33N 35°25' E 139°48'6 1.9
2014-Oct-28 21:30N 35°22' E 139°53'0 0.0
2014-Oct-28 20:30N 35°22' E 139°53'0 0.0
2014-Oct-28 19:06N 35°22' E 139°53'0 0.0
2014-Oct-28 18:06N 35°22' E 139°53'0 0.0
2014-Oct-28 17:24N 35°22' E 139°53'0 0.0
2014-Oct-28 16:18N 35°22' E 139°53'0 0.0
2014-Oct-28 14:24N 35°22' E 139°53'0 0.0
2014-Oct-28 09:19N 35°22' E 139°53'7 8.9
2014-Oct-28 08:32N 35°28' E 139°50'5 0.2
2014-Oct-27 04:33N 35°31' E 139°55'1111.5
2014-Oct-27 03:33N 35°23' E 139°45'249 9.8
2014-Oct-26 02:10N 33°59' E 135°01'711.7
2014-Oct-26 01:32N 34°07' E 134°59'1410.1
2014-Oct-26 00:10N 34°20' E 134°60'610.6
2014-Oct-25 23:33N 34°27' E 135°01'9 9.3
2014-Oct-25 22:32N 34°36' E 135°03'135 3.6
2014-Oct-24 09:13N 34°06' E 132°23'812.4
2014-Oct-24 08:33N 34°15' E 132°22'1010.1
2014-Oct-24 07:33N 34°21' E 132°31'0 0.0
2014-Oct-24 05:29N 34°21' E 132°31'0 0.1
2014-Oct-24 04:32N 34°21' E 132°31'0 0.0
2014-Oct-24 01:11N 34°21' E 132°31'0 0.0
2014-Oct-23 23:32N 34°21' E 132°31'0 0.0
2014-Oct-23 22:29N 34°21' E 132°31'0 0.0
2014-Oct-23 21:32N 34°21' E 132°31'0 0.0
2014-Oct-23 20:32N 34°21' E 132°31'0 0.0
2014-Oct-23 19:32N 34°21' E 132°31'0 0.0
2014-Oct-23 18:32N 34°21' E 132°31'0 0.0
2014-Oct-23 17:32N 34°21' E 132°31'0 0.0
2014-Oct-23 16:32N 34°21' E 132°31'0 0.0
2014-Oct-23 15:26N 34°21' E 132°31'0 0.1
2014-Oct-23 14:32N 34°21' E 132°31'0 0.0
2014-Oct-23 13:32N 34°21' E 132°31'0 0.0
2014-Oct-23 12:32N 34°21' E 132°31'1 0.3
2014-Oct-23 08:33N 34°21' E 132°30'  

Dump ship's entire track history